sensor_id;sensor_type;location;lat;lon;timestamp;pressure;altitude;pressure_sealevel;temperature;humidity
70011;BME280;59543;37.950;-122.338;2023-02-28T00:00:24;101090.78;;;9.93;59.23
70011;BME280;59543;37.950;-122.338;2023-02-28T00:02:50;101097.06;;;9.73;59.64
70011;BME280;59543;37.950;-122.338;2023-02-28T00:05:17;101110.84;;;9.58;59.90
70011;BME280;59543;37.950;-122.338;2023-02-28T00:07:43;101102.66;;;9.60;59.96
70011;BME280;59543;37.950;-122.338;2023-02-28T00:10:10;101110.38;;;9.53;59.17
70011;BME280;59543;37.950;-122.338;2023-02-28T00:12:36;101103.63;;;9.59;58.00
70011;BME280;59543;37.950;-122.338;2023-02-28T00:15:04;101101.47;;;9.53;58.52
70011;BME280;59543;37.950;-122.338;2023-02-28T00:17:31;101104.22;;;9.62;58.13
70011;BME280;59543;37.950;-122.338;2023-02-28T00:19:56;101093.72;;;9.59;57.48
70011;BME280;59543;37.950;-122.338;2023-02-28T00:22:29;101099.19;;;9.69;55.81
70011;BME280;59543;37.950;-122.338;2023-02-28T00:24:55;101114.69;;;9.66;55.33
70011;BME280;59543;37.950;-122.338;2023-02-28T00:27:21;101112.69;;;9.58;55.77
70011;BME280;59543;37.950;-122.338;2023-02-28T00:29:47;101105.44;;;9.49;50.64
70011;BME280;59543;37.950;-122.338;2023-02-28T00:32:13;101118.53;;;9.42;51.55
70011;BME280;59543;37.950;-122.338;2023-02-28T00:34:39;101121.66;;;9.47;52.42
70011;BME280;59543;37.950;-122.338;2023-02-28T00:37:05;101115.84;;;9.42;50.37
70011;BME280;59543;37.950;-122.338;2023-02-28T00:39:35;101144.41;;;9.43;50.60
70011;BME280;59543;37.950;-122.338;2023-02-28T00:42:01;101132.03;;;9.31;51.04
70011;BME280;59543;37.950;-122.338;2023-02-28T00:44:28;101141.19;;;9.28;52.83
70011;BME280;59543;37.950;-122.338;2023-02-28T00:46:54;101151.19;;;9.26;53.22
70011;BME280;59543;37.950;-122.338;2023-02-28T00:49:20;101155.03;;;9.24;52.48
70011;BME280;59543;37.950;-122.338;2023-02-28T00:51:46;101155.91;;;9.13;52.69
70011;BME280;59543;37.950;-122.338;2023-02-28T00:54:12;101166.06;;;9.09;54.66
70011;BME280;59543;37.950;-122.338;2023-02-28T00:56:38;101173.91;;;9.01;53.68
70011;BME280;59543;37.950;-122.338;2023-02-28T00:59:04;101168.81;;;8.87;54.76
70011;BME280;59543;37.950;-122.338;2023-02-28T01:01:30;101172.88;;;8.81;55.81
70011;BME280;59543;37.950;-122.338;2023-02-28T01:03:56;101173.38;;;8.75;56.13
70011;BME280;59543;37.950;-122.338;2023-02-28T01:06:22;101166.28;;;8.85;57.73
70011;BME280;59543;37.950;-122.338;2023-02-28T01:08:48;101175.66;;;8.91;57.76
70011;BME280;59543;37.950;-122.338;2023-02-28T01:11:15;101183.16;;;8.76;56.92
70011;BME280;59543;37.950;-122.338;2023-02-28T01:13:42;101173.13;;;8.78;58.05
70011;BME280;59543;37.950;-122.338;2023-02-28T01:16:09;101175.44;;;8.83;59.85
70011;BME280;59543;37.950;-122.338;2023-02-28T01:18:36;101177.78;;;8.76;59.11
70011;BME280;59543;37.950;-122.338;2023-02-28T01:21:05;101171.88;;;8.93;58.63
70011;BME280;59543;37.950;-122.338;2023-02-28T01:23:31;101176.97;;;8.97;58.39
70011;BME280;59543;37.950;-122.338;2023-02-28T01:26:03;101180.22;;;8.79;58.84
70011;BME280;59543;37.950;-122.338;2023-02-28T01:28:28;101191.19;;;8.76;59.61
70011;BME280;59543;37.950;-122.338;2023-02-28T01:30:55;101191.94;;;8.67;59.95
70011;BME280;59543;37.950;-122.338;2023-02-28T01:33:20;101190.72;;;8.60;60.72
70011;BME280;59543;37.950;-122.338;2023-02-28T01:35:46;101202.94;;;8.64;61.02
70011;BME280;59543;37.950;-122.338;2023-02-28T01:38:12;101193.69;;;8.45;60.52
70011;BME280;59543;37.950;-122.338;2023-02-28T01:40:38;101188.59;;;8.42;60.70
70011;BME280;59543;37.950;-122.338;2023-02-28T01:43:05;101186.97;;;8.51;61.07
70011;BME280;59543;37.950;-122.338;2023-02-28T01:45:31;101187.34;;;8.58;61.09
70011;BME280;59543;37.950;-122.338;2023-02-28T01:47:58;101196.88;;;8.39;62.90
70011;BME280;59543;37.950;-122.338;2023-02-28T01:50:26;101224.13;;;8.22;63.10
70011;BME280;59543;37.950;-122.338;2023-02-28T01:52:57;101216.56;;;7.93;64.31
70011;BME280;59543;37.950;-122.338;2023-02-28T01:55:25;101231.28;;;7.88;65.18
70011;BME280;59543;37.950;-122.338;2023-02-28T01:57:55;101231.59;;;7.61;67.25
70011;BME280;59543;37.950;-122.338;2023-02-28T02:00:22;101224.53;;;7.24;70.03
70011;BME280;59543;37.950;-122.338;2023-02-28T02:02:50;101227.22;;;7.00;71.80
70011;BME280;59543;37.950;-122.338;2023-02-28T02:05:19;101230.59;;;6.91;73.25
70011;BME280;59543;37.950;-122.338;2023-02-28T02:07:47;101233.66;;;6.74;73.55
70011;BME280;59543;37.950;-122.338;2023-02-28T02:15:13;101224.47;;;6.78;73.61
70011;BME280;59543;37.950;-122.338;2023-02-28T02:17:42;101231.31;;;6.69;74.37
70011;BME280;59543;37.950;-122.338;2023-02-28T02:35:43;101243.22;;;6.52;78.13
70011;BME280;59543;37.950;-122.338;2023-02-28T02:38:31;101256.69;;;6.63;78.25
70011;BME280;59543;37.950;-122.338;2023-02-28T02:43:44;101251.19;;;6.78;76.75
70011;BME280;59543;37.950;-122.338;2023-02-28T02:46:18;101255.34;;;6.82;75.41
70011;BME280;59543;37.950;-122.338;2023-02-28T02:48:45;101256.13;;;6.71;76.13
70011;BME280;59543;37.950;-122.338;2023-02-28T02:51:13;101264.47;;;6.67;76.78
70011;BME280;59543;37.950;-122.338;2023-02-28T02:53:47;101266.53;;;6.63;78.72
70011;BME280;59543;37.950;-122.338;2023-02-28T02:56:16;101271.97;;;6.61;78.43
70011;BME280;59543;37.950;-122.338;2023-02-28T02:58:43;101284.34;;;6.75;78.11
70011;BME280;59543;37.950;-122.338;2023-02-28T03:01:18;101283.91;;;6.81;77.62
70011;BME280;59543;37.950;-122.338;2023-02-28T03:03:56;101281.56;;;6.77;77.44
70011;BME280;59543;37.950;-122.338;2023-02-28T03:06:23;101276.44;;;6.74;77.11
70011;BME280;59543;37.950;-122.338;2023-02-28T03:08:49;101275.09;;;6.68;77.86
70011;BME280;59543;37.950;-122.338;2023-02-28T03:11:15;101272.94;;;6.60;78.17
70011;BME280;59543;37.950;-122.338;2023-02-28T03:13:51;101278.06;;;6.63;79.29
70011;BME280;59543;37.950;-122.338;2023-02-28T03:16:34;101289.19;;;6.57;80.46
70011;BME280;59543;37.950;-122.338;2023-02-28T03:19:12;101290.81;;;6.60;80.27
70011;BME280;59543;37.950;-122.338;2023-02-28T03:26:43;101315.41;;;6.52;81.16
70011;BME280;59543;37.950;-122.338;2023-02-28T03:29:13;101301.97;;;6.41;82.20
70011;BME280;59543;37.950;-122.338;2023-02-28T03:31:49;101296.16;;;6.34;82.89
70011;BME280;59543;37.950;-122.338;2023-02-28T03:36:48;101312.00;;;6.50;78.11
70011;BME280;59543;37.950;-122.338;2023-02-28T03:39:20;101318.16;;;6.63;76.02
70011;BME280;59543;37.950;-122.338;2023-02-28T03:41:55;101315.72;;;6.60;75.05
70011;BME280;59543;37.950;-122.338;2023-02-28T03:44:24;101315.19;;;6.55;74.01
70011;BME280;59543;37.950;-122.338;2023-02-28T03:46:57;101319.13;;;6.50;72.78
70011;BME280;59543;37.950;-122.338;2023-02-28T03:49:30;101326.66;;;6.45;73.56
70011;BME280;59543;37.950;-122.338;2023-02-28T03:51:58;101326.66;;;6.45;72.99
70011;BME280;59543;37.950;-122.338;2023-02-28T03:54:26;101323.66;;;6.36;73.01
70011;BME280;59543;37.950;-122.338;2023-02-28T03:56:59;101329.31;;;6.45;72.63
70011;BME280;59543;37.950;-122.338;2023-02-28T03:59:28;101314.47;;;6.28;72.99
70011;BME280;59543;37.950;-122.338;2023-02-28T04:01:56;101316.50;;;6.24;73.86
70011;BME280;59543;37.950;-122.338;2023-02-28T04:04:23;101322.13;;;6.19;74.77
70011;BME280;59543;37.950;-122.338;2023-02-28T04:06:50;101317.56;;;6.09;75.50
70011;BME280;59543;37.950;-122.338;2023-02-28T04:09:16;101318.63;;;6.06;75.79
70011;BME280;59543;37.950;-122.338;2023-02-28T04:11:44;101323.41;;;6.01;75.71
70011;BME280;59543;37.950;-122.338;2023-02-28T04:14:11;101328.44;;;5.93;76.09
70011;BME280;59543;37.950;-122.338;2023-02-28T04:16:39;101319.84;;;5.88;76.46
70011;BME280;59543;37.950;-122.338;2023-02-28T04:19:05;101326.78;;;5.78;77.93
70011;BME280;59543;37.950;-122.338;2023-02-28T04:21:33;101316.50;;;5.71;78.10
70011;BME280;59543;37.950;-122.338;2023-02-28T04:23:59;101323.88;;;5.68;78.37
70011;BME280;59543;37.950;-122.338;2023-02-28T04:26:28;101323.00;;;5.67;78.28
70011;BME280;59543;37.950;-122.338;2023-02-28T04:28:55;101327.38;;;5.68;78.38
70011;BME280;59543;37.950;-122.338;2023-02-28T04:31:21;101321.72;;;5.60;78.38
70011;BME280;59543;37.950;-122.338;2023-02-28T04:33:47;101328.97;;;5.58;77.91
70011;BME280;59543;37.950;-122.338;2023-02-28T04:36:13;101325.66;;;5.55;78.62
70011;BME280;59543;37.950;-122.338;2023-02-28T04:38:39;101329.09;;;5.57;78.42
70011;BME280;59543;37.950;-122.338;2023-02-28T04:41:05;101326.16;;;5.47;79.07
70011;BME280;59543;37.950;-122.338;2023-02-28T04:43:31;101336.63;;;5.50;78.87
70011;BME280;59543;37.950;-122.338;2023-02-28T04:45:58;101338.56;;;5.48;78.40
70011;BME280;59543;37.950;-122.338;2023-02-28T04:48:29;101334.88;;;5.36;79.40
70011;BME280;59543;37.950;-122.338;2023-02-28T04:50:59;101332.69;;;5.28;79.12
70011;BME280;59543;37.950;-122.338;2023-02-28T04:53:25;101325.75;;;5.26;79.05
70011;BME280;59543;37.950;-122.338;2023-02-28T04:55:51;101330.75;;;5.18;79.61
70011;BME280;59543;37.950;-122.338;2023-02-28T04:58:16;101328.94;;;5.18;79.66
70011;BME280;59543;37.950;-122.338;2023-02-28T05:00:42;101340.28;;;5.08;80.00
70011;BME280;59543;37.950;-122.338;2023-02-28T05:03:08;101346.88;;;5.02;80.39
70011;BME280;59543;37.950;-122.338;2023-02-28T05:05:35;101337.16;;;5.01;81.42
70011;BME280;59543;37.950;-122.338;2023-02-28T05:08:00;101342.41;;;5.02;81.24
70011;BME280;59543;37.950;-122.338;2023-02-28T05:10:26;101352.59;;;4.96;81.74
70011;BME280;59543;37.950;-122.338;2023-02-28T05:12:52;101363.25;;;4.96;82.01
70011;BME280;59543;37.950;-122.338;2023-02-28T05:15:18;101367.94;;;4.92;83.18
70011;BME280;59543;37.950;-122.338;2023-02-28T05:17:44;101367.53;;;4.98;83.07
70011;BME280;59543;37.950;-122.338;2023-02-28T05:20:10;101373.44;;;5.03;83.69
70011;BME280;59543;37.950;-122.338;2023-02-28T05:22:36;101370.47;;;5.08;84.06
70011;BME280;59543;37.950;-122.338;2023-02-28T05:25:03;101364.75;;;5.14;84.49
70011;BME280;59543;37.950;-122.338;2023-02-28T05:27:30;101373.03;;;5.24;83.71
70011;BME280;59543;37.950;-122.338;2023-02-28T05:29:56;101375.94;;;5.34;84.35
70011;BME280;59543;37.950;-122.338;2023-02-28T05:32:22;101375.03;;;5.47;83.80
70011;BME280;59543;37.950;-122.338;2023-02-28T05:34:48;101375.16;;;5.46;83.92
70011;BME280;59543;37.950;-122.338;2023-02-28T05:37:14;101378.78;;;5.45;84.61
70011;BME280;59543;37.950;-122.338;2023-02-28T05:39:41;101381.56;;;5.56;84.98
70011;BME280;59543;37.950;-122.338;2023-02-28T05:42:07;101387.06;;;5.67;84.86
70011;BME280;59543;37.950;-122.338;2023-02-28T05:44:33;101384.59;;;5.64;84.87
70011;BME280;59543;37.950;-122.338;2023-02-28T05:46:59;101415.06;;;5.74;84.73
70011;BME280;59543;37.950;-122.338;2023-02-28T05:49:25;101416.56;;;5.93;82.74
70011;BME280;59543;37.950;-122.338;2023-02-28T05:51:50;101417.31;;;5.95;80.07
70011;BME280;59543;37.950;-122.338;2023-02-28T05:54:16;101420.25;;;5.90;80.83
70011;BME280;59543;37.950;-122.338;2023-02-28T05:56:42;101419.28;;;5.91;80.25
70011;BME280;59543;37.950;-122.338;2023-02-28T05:59:11;101423.44;;;5.83;82.48
70011;BME280;59543;37.950;-122.338;2023-02-28T06:01:44;101427.47;;;5.76;82.90
70011;BME280;59543;37.950;-122.338;2023-02-28T06:04:14;101411.25;;;5.79;83.28
70011;BME280;59543;37.950;-122.338;2023-02-28T06:06:46;101409.22;;;5.82;82.08
70011;BME280;59543;37.950;-122.338;2023-02-28T06:09:12;101412.00;;;5.81;83.45
70011;BME280;59543;37.950;-122.338;2023-02-28T06:11:38;101414.81;;;5.92;83.71
70011;BME280;59543;37.950;-122.338;2023-02-28T06:14:04;101401.97;;;5.84;84.73
70011;BME280;59543;37.950;-122.338;2023-02-28T06:16:31;101405.00;;;5.65;86.54
70011;BME280;59543;37.950;-122.338;2023-02-28T06:18:58;101405.97;;;5.64;86.70
70011;BME280;59543;37.950;-122.338;2023-02-28T06:21:24;101405.31;;;5.61;86.94
70011;BME280;59543;37.950;-122.338;2023-02-28T06:23:50;101409.88;;;5.59;87.25
70011;BME280;59543;37.950;-122.338;2023-02-28T06:26:16;101411.34;;;5.50;87.58
70011;BME280;59543;37.950;-122.338;2023-02-28T06:28:42;101413.53;;;5.58;87.32
70011;BME280;59543;37.950;-122.338;2023-02-28T06:31:12;101421.06;;;5.51;87.57
70011;BME280;59543;37.950;-122.338;2023-02-28T06:33:38;101423.81;;;5.49;87.52
70011;BME280;59543;37.950;-122.338;2023-02-28T06:36:04;101429.16;;;5.49;87.24
70011;BME280;59543;37.950;-122.338;2023-02-28T06:38:31;101428.25;;;5.36;87.83
70011;BME280;59543;37.950;-122.338;2023-02-28T06:40:57;101424.75;;;5.36;87.26
70011;BME280;59543;37.950;-122.338;2023-02-28T06:43:24;101427.88;;;5.28;86.94
70011;BME280;59543;37.950;-122.338;2023-02-28T06:45:53;101432.94;;;5.18;87.26
70011;BME280;59543;37.950;-122.338;2023-02-28T06:48:19;101433.16;;;5.15;86.89
70011;BME280;59543;37.950;-122.338;2023-02-28T06:50:45;101428.28;;;4.93;88.70
70011;BME280;59543;37.950;-122.338;2023-02-28T06:53:12;101435.53;;;4.91;89.09
70011;BME280;59543;37.950;-122.338;2023-02-28T06:55:38;101429.25;;;4.92;89.39
70011;BME280;59543;37.950;-122.338;2023-02-28T06:58:04;101436.78;;;4.86;90.21
70011;BME280;59543;37.950;-122.338;2023-02-28T07:00:43;101442.38;;;4.95;89.23
70011;BME280;59543;37.950;-122.338;2023-02-28T07:03:09;101449.34;;;4.98;89.89
70011;BME280;59543;37.950;-122.338;2023-02-28T07:05:36;101452.41;;;5.06;89.66
70011;BME280;59543;37.950;-122.338;2023-02-28T07:08:02;101441.53;;;5.09;90.59
70011;BME280;59543;37.950;-122.338;2023-02-28T07:10:28;101441.69;;;5.20;89.89
70011;BME280;59543;37.950;-122.338;2023-02-28T07:12:54;101447.03;;;5.20;90.35
70011;BME280;59543;37.950;-122.338;2023-02-28T07:15:20;101444.28;;;5.22;89.75
70011;BME280;59543;37.950;-122.338;2023-02-28T07:17:46;101440.97;;;5.18;89.24
70011;BME280;59543;37.950;-122.338;2023-02-28T07:20:12;101438.47;;;5.15;89.48
70011;BME280;59543;37.950;-122.338;2023-02-28T07:22:37;101437.53;;;5.16;88.83
70011;BME280;59543;37.950;-122.338;2023-02-28T07:25:04;101433.53;;;4.95;89.68
70011;BME280;59543;37.950;-122.338;2023-02-28T07:27:30;101436.59;;;4.89;89.96
70011;BME280;59543;37.950;-122.338;2023-02-28T07:29:56;101444.97;;;4.82;90.47
70011;BME280;59543;37.950;-122.338;2023-02-28T07:32:22;101444.13;;;4.82;90.54
70011;BME280;59543;37.950;-122.338;2023-02-28T07:34:48;101437.25;;;4.92;89.88
70011;BME280;59543;37.950;-122.338;2023-02-28T07:37:14;101438.88;;;4.80;89.62
70011;BME280;59543;37.950;-122.338;2023-02-28T07:39:40;101442.88;;;4.88;89.49
70011;BME280;59543;37.950;-122.338;2023-02-28T07:42:09;101440.59;;;4.81;88.67
70011;BME280;59543;37.950;-122.338;2023-02-28T07:44:37;101438.88;;;4.80;89.22
70011;BME280;59543;37.950;-122.338;2023-02-28T07:47:08;101445.44;;;4.75;88.84
70011;BME280;59543;37.950;-122.338;2023-02-28T07:49:38;101446.50;;;4.72;89.04
70011;BME280;59543;37.950;-122.338;2023-02-28T07:52:04;101448.28;;;4.72;88.96
70011;BME280;59543;37.950;-122.338;2023-02-28T07:54:31;101440.22;;;4.73;89.05
70011;BME280;59543;37.950;-122.338;2023-02-28T07:56:57;101450.28;;;4.68;88.95
70011;BME280;59543;37.950;-122.338;2023-02-28T07:59:22;101453.91;;;4.67;88.65
70011;BME280;59543;37.950;-122.338;2023-02-28T08:01:49;101450.84;;;4.59;89.70
70011;BME280;59543;37.950;-122.338;2023-02-28T08:04:18;101442.06;;;4.57;89.64
70011;BME280;59543;37.950;-122.338;2023-02-28T08:06:44;101442.25;;;4.54;90.16
70011;BME280;59543;37.950;-122.338;2023-02-28T08:09:10;101446.56;;;4.56;90.26
70011;BME280;59543;37.950;-122.338;2023-02-28T08:11:36;101448.84;;;4.63;89.48
70011;BME280;59543;37.950;-122.338;2023-02-28T08:14:02;101445.50;;;4.59;89.58
70011;BME280;59543;37.950;-122.338;2023-02-28T08:16:28;101448.00;;;4.62;89.65
70011;BME280;59543;37.950;-122.338;2023-02-28T08:18:54;101450.47;;;4.65;89.09
70011;BME280;59543;37.950;-122.338;2023-02-28T08:21:20;101445.13;;;4.65;88.51
70011;BME280;59543;37.950;-122.338;2023-02-28T08:23:47;101436.19;;;4.66;88.34
70011;BME280;59543;37.950;-122.338;2023-02-28T08:26:13;101443.81;;;4.58;88.35
70011;BME280;59543;37.950;-122.338;2023-02-28T08:28:39;101447.97;;;4.48;88.26
70011;BME280;59543;37.950;-122.338;2023-02-28T08:31:13;101446.91;;;4.50;88.64
70011;BME280;59543;37.950;-122.338;2023-02-28T08:33:40;101451.13;;;4.54;87.97
70011;BME280;59543;37.950;-122.338;2023-02-28T08:36:06;101460.16;;;4.52;88.32
70011;BME280;59543;37.950;-122.338;2023-02-28T08:38:33;101456.66;;;4.51;88.06
70011;BME280;59543;37.950;-122.338;2023-02-28T08:40:59;101448.06;;;4.46;88.45
70011;BME280;59543;37.950;-122.338;2023-02-28T08:43:26;101451.00;;;4.42;88.03
70011;BME280;59543;37.950;-122.338;2023-02-28T08:45:52;101455.84;;;4.35;88.14
70011;BME280;59543;37.950;-122.338;2023-02-28T08:48:18;101455.00;;;4.34;88.23
70011;BME280;59543;37.950;-122.338;2023-02-28T08:50:44;101453.91;;;4.23;88.75
70011;BME280;59543;37.950;-122.338;2023-02-28T08:53:10;101451.84;;;4.28;88.17
70011;BME280;59543;37.950;-122.338;2023-02-28T08:55:35;101453.84;;;4.24;88.20
70011;BME280;59543;37.950;-122.338;2023-02-28T08:58:01;101451.84;;;4.28;88.47
70011;BME280;59543;37.950;-122.338;2023-02-28T09:00:27;101455.91;;;4.19;88.54
70011;BME280;59543;37.950;-122.338;2023-02-28T09:02:53;101452.75;;;4.12;89.20
70011;BME280;59543;37.950;-122.338;2023-02-28T09:05:19;101449.97;;;4.14;89.05
70011;BME280;59543;37.950;-122.338;2023-02-28T09:07:45;101450.22;;;4.25;88.33
70011;BME280;59543;37.950;-122.338;2023-02-28T09:10:11;101442.22;;;4.25;88.04
70011;BME280;59543;37.950;-122.338;2023-02-28T09:12:37;101441.38;;;4.25;88.43
70011;BME280;59543;37.950;-122.338;2023-02-28T09:15:03;101437.06;;;4.22;88.44
70011;BME280;59543;37.950;-122.338;2023-02-28T09:17:29;101435.88;;;4.12;88.70
70011;BME280;59543;37.950;-122.338;2023-02-28T09:19:55;101426.44;;;4.22;89.91
70011;BME280;59543;37.950;-122.338;2023-02-28T09:22:22;101429.50;;;4.30;89.95
70011;BME280;59543;37.950;-122.338;2023-02-28T09:24:48;101429.50;;;4.30;89.47
70011;BME280;59543;37.950;-122.338;2023-02-28T09:27:13;101425.75;;;4.33;90.43
70011;BME280;59543;37.950;-122.338;2023-02-28T09:29:39;101421.69;;;4.42;90.13
70011;BME280;59543;37.950;-122.338;2023-02-28T09:32:05;101416.38;;;4.42;89.57
70011;BME280;59543;37.950;-122.338;2023-02-28T09:34:31;101416.28;;;4.43;89.82
70011;BME280;59543;37.950;-122.338;2023-02-28T09:36:57;101421.63;;;4.43;90.31
70011;BME280;59543;37.950;-122.338;2023-02-28T09:39:23;101418.19;;;4.41;90.73
70011;BME280;59543;37.950;-122.338;2023-02-28T09:41:50;101414.66;;;4.41;91.40
70011;BME280;59543;37.950;-122.338;2023-02-28T09:44:38;101414.09;;;4.50;91.65
70011;BME280;59543;37.950;-122.338;2023-02-28T09:47:14;101414.56;;;4.56;91.54
70011;BME280;59543;37.950;-122.338;2023-02-28T09:49:42;101413.53;;;4.59;91.38
70011;BME280;59543;37.950;-122.338;2023-02-28T09:52:15;101407.53;;;4.55;91.44
70011;BME280;59543;37.950;-122.338;2023-02-28T09:54:42;101399.56;;;4.70;91.62
70011;BME280;59543;37.950;-122.338;2023-02-28T09:59:49;101398.22;;;4.91;91.16
70011;BME280;59543;37.950;-122.338;2023-02-28T10:02:19;101393.09;;;4.88;91.63
70011;BME280;59543;37.950;-122.338;2023-02-28T10:09:45;101384.28;;;5.15;90.77
70011;BME280;59543;37.950;-122.338;2023-02-28T10:12:12;101385.41;;;5.11;90.88
70011;BME280;59543;37.950;-122.338;2023-02-28T10:14:40;101383.81;;;5.08;91.34
70011;BME280;59543;37.950;-122.338;2023-02-28T10:17:13;101378.06;;;5.14;91.37
70011;BME280;59543;37.950;-122.338;2023-02-28T10:19:42;101377.88;;;5.17;91.14
70011;BME280;59543;37.950;-122.338;2023-02-28T10:24:53;101372.84;;;5.27;90.42
70011;BME280;59543;37.950;-122.338;2023-02-28T10:27:23;101368.16;;;5.31;90.47
70011;BME280;59543;37.950;-122.338;2023-02-28T10:29:49;101370.91;;;5.29;90.14
70011;BME280;59543;37.950;-122.338;2023-02-28T10:32:20;101366.69;;;5.39;90.11
70011;BME280;59543;37.950;-122.338;2023-02-28T10:34:57;101379.50;;;5.47;90.10
70011;BME280;59543;37.950;-122.338;2023-02-28T10:37:26;101367.78;;;5.49;89.15
70011;BME280;59543;37.950;-122.338;2023-02-28T10:39:52;101368.16;;;5.58;89.27
70011;BME280;59543;37.950;-122.338;2023-02-28T10:47:37;101363.25;;;5.64;88.09
70011;BME280;59543;37.950;-122.338;2023-02-28T10:50:23;101356.44;;;5.73;87.50
70011;BME280;59543;37.950;-122.338;2023-02-28T10:52:51;101354.44;;;5.77;87.56
70011;BME280;59543;37.950;-122.338;2023-02-28T10:55:22;101350.59;;;5.81;87.30
70011;BME280;59543;37.950;-122.338;2023-02-28T10:57:50;101341.41;;;5.72;87.04
70011;BME280;59543;37.950;-122.338;2023-02-28T11:00:21;101342.59;;;5.81;87.20
70011;BME280;59543;37.950;-122.338;2023-02-28T11:02:47;101343.31;;;5.83;86.72
70011;BME280;59543;37.950;-122.338;2023-02-28T11:05:35;101342.91;;;5.89;86.11
70011;BME280;59543;37.950;-122.338;2023-02-28T11:08:06;101335.22;;;5.84;86.22
70011;BME280;59543;37.950;-122.338;2023-02-28T11:10:36;101338.31;;;5.78;86.92
70011;BME280;59543;37.950;-122.338;2023-02-28T11:13:02;101339.88;;;5.68;86.98
70011;BME280;59543;37.950;-122.338;2023-02-28T11:15:30;101330.53;;;5.75;86.40
70011;BME280;59543;37.950;-122.338;2023-02-28T11:18:15;101327.84;;;5.75;86.89
70011;BME280;59543;37.950;-122.338;2023-02-28T11:20:47;101336.28;;;5.82;86.29
70011;BME280;59543;37.950;-122.338;2023-02-28T11:23:14;101338.41;;;5.77;86.29
70011;BME280;59543;37.950;-122.338;2023-02-28T11:25:45;101333.41;;;5.72;86.50
70011;BME280;59543;37.950;-122.338;2023-02-28T11:33:48;101321.63;;;5.74;86.94
70011;BME280;59543;37.950;-122.338;2023-02-28T11:36:18;101321.31;;;5.66;87.08
70011;BME280;59543;37.950;-122.338;2023-02-28T11:38:44;101312.53;;;5.64;86.73
70011;BME280;59543;37.950;-122.338;2023-02-28T11:41:22;101312.66;;;5.63;87.25
70011;BME280;59543;37.950;-122.338;2023-02-28T11:43:57;101314.38;;;5.64;86.71
70011;BME280;59543;37.950;-122.338;2023-02-28T11:46:32;101307.22;;;5.64;86.70
70011;BME280;59543;37.950;-122.338;2023-02-28T11:51:53;101294.28;;;5.71;86.29
70011;BME280;59543;37.950;-122.338;2023-02-28T11:56:55;101292.47;;;5.59;86.63
70011;BME280;59543;37.950;-122.338;2023-02-28T11:59:37;101276.44;;;5.59;86.75
70011;BME280;59543;37.950;-122.338;2023-02-28T12:07:09;101267.72;;;5.69;86.29
70011;BME280;59543;37.950;-122.338;2023-02-28T12:09:49;101270.91;;;5.74;85.78
70011;BME280;59543;37.950;-122.338;2023-02-28T12:12:21;101266.25;;;5.78;85.71
70011;BME280;59543;37.950;-122.338;2023-02-28T12:28:15;101251.31;;;6.01;84.74
70011;BME280;59543;37.950;-122.338;2023-02-28T12:30:51;101248.97;;;6.09;84.09
70011;BME280;59543;37.950;-122.338;2023-02-28T12:33:20;101256.44;;;6.04;84.34
70011;BME280;59543;37.950;-122.338;2023-02-28T12:35:49;101257.19;;;6.06;84.31
70011;BME280;59543;37.950;-122.338;2023-02-28T12:38:24;101250.69;;;5.98;84.72
70011;BME280;59543;37.950;-122.338;2023-02-28T12:43:17;101242.78;;;5.96;84.43
70011;BME280;59543;37.950;-122.338;2023-02-28T12:48:12;101234.19;;;5.91;85.03
70011;BME280;59543;37.950;-122.338;2023-02-28T12:50:39;101238.28;;;5.97;84.95
70011;BME280;59543;37.950;-122.338;2023-02-28T12:53:26;101228.66;;;6.07;85.07
70011;BME280;59543;37.950;-122.338;2023-02-28T12:56:56;101220.66;;;5.94;85.03
70011;BME280;59543;37.950;-122.338;2023-02-28T12:58:50;101229.31;;;5.98;85.56
70011;BME280;59543;37.950;-122.338;2023-02-28T13:09:16;101219.78;;;5.81;86.79
70011;BME280;59543;37.950;-122.338;2023-02-28T13:11:46;101208.28;;;5.93;86.38
70011;BME280;59543;37.950;-122.338;2023-02-28T13:17:26;101216.09;;;5.96;86.17
70011;BME280;59543;37.950;-122.338;2023-02-28T13:24:52;101230.50;;;5.93;87.40
70011;BME280;59543;37.950;-122.338;2023-02-28T13:29:50;101229.16;;;5.86;89.15
70011;BME280;59543;37.950;-122.338;2023-02-28T13:32:28;101225.34;;;5.90;89.28
70011;BME280;59543;37.950;-122.338;2023-02-28T13:39:47;101206.22;;;5.84;91.35
70011;BME280;59543;37.950;-122.338;2023-02-28T13:42:35;101209.50;;;5.74;92.33
70011;BME280;59543;37.950;-122.338;2023-02-28T13:57:58;101194.47;;;5.73;93.27
70011;BME280;59543;37.950;-122.338;2023-02-28T14:05:44;101189.13;;;5.73;94.29
70011;BME280;59543;37.950;-122.338;2023-02-28T14:10:43;101175.56;;;5.77;95.24
70011;BME280;59543;37.950;-122.338;2023-02-28T14:16:15;101158.19;;;5.84;94.49
70011;BME280;59543;37.950;-122.338;2023-02-28T14:19:03;101147.59;;;5.95;93.89
70011;BME280;59543;37.950;-122.338;2023-02-28T14:21:29;101135.75;;;5.99;93.56
70011;BME280;59543;37.950;-122.338;2023-02-28T14:34:46;101128.69;;;6.11;92.68
70011;BME280;59543;37.950;-122.338;2023-02-28T14:37:16;101124.06;;;6.13;92.60
70011;BME280;59543;37.950;-122.338;2023-02-28T14:39:44;101111.91;;;6.09;92.00
70011;BME280;59543;37.950;-122.338;2023-02-28T14:44:55;101103.03;;;6.08;92.09
70011;BME280;59543;37.950;-122.338;2023-02-28T14:47:28;101102.06;;;6.09;91.81
70011;BME280;59543;37.950;-122.338;2023-02-28T14:49:54;101091.63;;;6.06;92.14
70011;BME280;59543;37.950;-122.338;2023-02-28T14:52:25;101086.81;;;6.11;91.68
70011;BME280;59543;37.950;-122.338;2023-02-28T14:54:54;101078.94;;;5.97;92.42
70011;BME280;59543;37.950;-122.338;2023-02-28T14:57:31;101082.66;;;5.94;92.36